createdAt,value
2022-11-17T00:01:15.848Z,24.8
2022-11-17T00:06:55.199Z,23.8
2022-11-17T00:12:38.827Z,22.9
2022-11-17T00:17:46.462Z,24.8
2022-11-17T00:23:23.917Z,27.9
2022-11-17T00:28:45.523Z,27.6
2022-11-17T00:34:08.680Z,26.6
2022-11-17T00:39:15.881Z,25.3
2022-11-17T00:44:53.137Z,24.2
2022-11-17T00:49:45.037Z,23.2
2022-11-17T00:54:52.735Z,22.5
2022-11-17T01:00:15.264Z,26.5
2022-11-17T01:05:22.627Z,28.1
2022-11-17T01:10:45.874Z,27.3
2022-11-17T01:16:07.708Z,26.1
2022-11-17T01:21:45.746Z,24.8
2022-11-17T01:26:37.508Z,23.7
2022-11-17T01:31:44.509Z,22.9
2022-11-17T01:36:36.125Z,23.8
2022-11-17T01:41:57.998Z,27.2
2022-11-17T01:52:27.388Z,27.1
2022-11-17T01:57:49.160Z,25.8
2022-11-17T02:03:12.945Z,24.6
2022-11-17T02:08:50.480Z,23.6
2022-11-17T02:14:28.318Z,22.7
2022-11-17T02:20:00.909Z,26
2022-11-17T02:24:52.280Z,28.4
2022-11-17T02:30:17.071Z,27.4
2022-11-17T02:35:40.282Z,26.3
2022-11-17T02:41:02.026Z,25
2022-11-17T02:46:09.345Z,23.9
2022-11-17T02:51:35.683Z,23.1
2022-11-17T02:56:58.915Z,23.6
2022-11-17T03:02:05.269Z,27.3
2022-11-17T03:07:29.033Z,27.8
2022-11-17T03:13:07.743Z,26.9
2022-11-17T03:18:45.138Z,25.6
2022-11-17T03:24:23.712Z,24.4
2022-11-17T03:30:01.614Z,23.4
2022-11-17T03:35:44.003Z,22.8
2022-11-17T03:41:26.481Z,27.2
2022-11-17T03:51:39.887Z,27.1
2022-11-17T03:57:18.990Z,25.8
2022-11-17T04:02:40.121Z,24.5
2022-11-17T04:08:03.053Z,23.6
2022-11-17T04:13:43.655Z,22.7
2022-11-17T04:19:24.141Z,26.3
2022-11-17T04:25:02.463Z,28.1
2022-11-17T04:30:24.884Z,27.3
2022-11-17T04:36:02.512Z,26
2022-11-17T04:41:24.674Z,24.8
2022-11-17T04:47:03.467Z,23.7
2022-11-17T04:52:45.995Z,22.8
2022-11-17T04:58:10.916Z,26.1
2022-11-17T05:03:34.507Z,28.4
2022-11-17T05:09:12.731Z,27.4
2022-11-17T05:14:49.655Z,26.2
2022-11-17T05:20:15.412Z,24.8
2022-11-17T05:25:37.635Z,23.8
2022-11-17T05:31:15.015Z,22.9
2022-11-17T05:36:58.459Z,25.4
2022-11-17T05:42:36.611Z,28.6
2022-11-17T05:48:03.721Z,29
2022-11-17T05:53:30.740Z,28
2022-11-17T05:58:52.533Z,26.6
2022-11-17T06:04:02.349Z,26.1
2022-11-17T06:09:31.963Z,28.5
2022-11-17T06:15:10.704Z,28.9
2022-11-17T06:26:26.357Z,26.4
2022-11-17T06:32:05.668Z,25.3
2022-11-17T06:37:28.024Z,28.4
2022-11-17T06:43:09.646Z,29.1
2022-11-17T06:48:48.237Z,28.1
2022-11-17T06:54:32.239Z,26.6
2022-11-17T06:59:55.824Z,25.2
2022-11-17T07:05:19.592Z,27.6
2022-11-17T07:11:02.941Z,29.9
2022-11-17T07:16:26.256Z,28.4
2022-11-17T07:22:05.205Z,27.2
2022-11-17T07:27:33.503Z,25.8
2022-11-17T07:33:12.367Z,26
2022-11-17T07:38:51.128Z,28.2
2022-11-17T07:44:29.049Z,27.4
2022-11-17T07:50:11.168Z,26.1
2022-11-17T07:55:34.421Z,24.8
2022-11-17T08:01:19.268Z,23.8
2022-11-17T08:06:48.617Z,22.9
2022-11-17T08:11:57.472Z,22.2
2022-11-17T08:17:21.611Z,26.2
2022-11-17T08:22:47.271Z,28
2022-11-17T08:28:10.511Z,27.3
2022-11-17T08:33:33.126Z,26.1
2022-11-17T08:38:59.117Z,24.8
2022-11-17T08:44:41.858Z,23.8
2022-11-17T08:50:21.261Z,22.8
2022-11-17T08:55:45.234Z,22.6
2022-11-17T09:01:24.762Z,27.3
2022-11-17T09:07:02.954Z,27.7
2022-11-17T09:12:58.951Z,26.9
2022-11-17T09:18:41.075Z,25.4
2022-11-17T09:24:07.395Z,24.2
2022-11-17T09:29:31.122Z,23.3
2022-11-17T09:34:56.942Z,22.5
2022-11-17T09:40:21.365Z,26.1
2022-11-17T09:46:03.133Z,27.9
2022-11-17T09:52:00.914Z,27.3
2022-11-17T09:57:45.053Z,25.8
2022-11-17T10:03:24.336Z,24.5
2022-11-17T10:09:07.325Z,23.4
2022-11-17T10:14:47.627Z,22.6
2022-11-17T10:20:25.574Z,26
2022-11-17T10:26:04.795Z,27.9
2022-11-17T10:31:42.295Z,27.2
2022-11-17T10:37:26.955Z,25.8
2022-11-17T10:43:13.290Z,24.5
2022-11-17T10:49:00.631Z,23.4
2022-11-17T10:54:39.849Z,22.6
2022-11-17T11:00:18.008Z,26.1
2022-11-17T11:05:55.266Z,27.9
2022-11-17T11:11:39.427Z,27.1
2022-11-17T11:17:21.129Z,25.8
2022-11-17T11:22:58.676Z,24.5
2022-11-17T11:28:21.034Z,23.5
2022-11-17T11:34:04.173Z,22.6
2022-11-17T11:39:45.056Z,26.4
2022-11-17T11:45:28.120Z,27.6
2022-11-17T11:51:11.966Z,27.1
2022-11-17T11:56:37.679Z,25.8
2022-11-17T12:02:18.890Z,24.6
2022-11-17T12:07:57.922Z,23.5
2022-11-17T12:13:38.736Z,22.8
2022-11-17T12:19:20.040Z,26.5
2022-11-17T12:24:58.063Z,28.2
2022-11-17T12:30:38.125Z,27.6
2022-11-17T12:36:16.143Z,26.2
2022-11-17T12:41:39.123Z,24.9
2022-11-17T12:47:22.985Z,23.9
2022-11-17T12:53:37.301Z,22.9
2022-11-17T12:59:17.840Z,26.2
2022-11-17T13:04:55.538Z,28.4
2022-11-17T13:11:05.915Z,27.6
2022-11-17T13:16:49.236Z,26.2
2022-11-17T13:22:27.583Z,24.9
2022-11-17T13:27:35.706Z,23.9
2022-11-17T13:33:19.506Z,23.1
2022-11-17T13:39:01.754Z,22.4
2022-11-17T13:44:46.309Z,21.8
2022-11-17T13:50:24.783Z,21.3
2022-11-17T13:56:06.506Z,20.9
2022-11-17T14:01:46.678Z,20.5
2022-11-17T14:07:25.945Z,20.2
2022-11-17T14:13:03.935Z,19.9
2022-11-17T14:18:42.506Z,19.8
2022-11-17T14:24:29.112Z,19.6
2022-11-17T14:30:07.049Z,19.3
2022-11-17T14:35:55.153Z,19.2
2022-11-17T14:41:21.922Z,19
2022-11-17T14:47:03.616Z,18.9
2022-11-17T14:52:30.883Z,18.8
2022-11-17T14:57:38.534Z,18.6
2022-11-17T15:03:22.861Z,18.6
2022-11-17T15:09:36.517Z,18.5
2022-11-17T15:15:16.228Z,18.4
2022-11-17T15:20:38.433Z,18.3
2022-11-17T15:26:21.976Z,18.3
2022-11-17T15:31:45.626Z,18.1
2022-11-17T15:37:23.988Z,18.3
2022-11-17T15:43:10.487Z,18.4
2022-11-17T15:48:35.179Z,28.3
2022-11-17T15:54:45.708Z,33.6
2022-11-17T16:00:23.829Z,36.2
2022-11-17T16:06:02.108Z,35.5
2022-11-17T16:11:13.945Z,36.3
2022-11-17T16:16:51.481Z,36.1
2022-11-17T16:22:30.105Z,38.4
2022-11-17T16:28:07.856Z,38.1
2022-11-17T16:33:19.570Z,36.9
2022-11-17T16:39:29.869Z,40
2022-11-17T16:44:52.682Z,37.8
2022-11-17T16:50:30.344Z,37.7
2022-11-17T16:56:12.149Z,37.9
2022-11-17T17:01:34.508Z,37.9
2022-11-17T17:07:13.677Z,39.1
2022-11-17T17:12:36.585Z,41.8
2022-11-17T17:17:58.745Z,43.3
2022-11-17T17:23:21.706Z,43.9
2022-11-17T17:28:28.569Z,43.3
2022-11-17T17:34:08.421Z,41.8
2022-11-17T17:39:30.842Z,40.4
2022-11-17T17:45:08.950Z,41.8
2022-11-17T17:50:47.048Z,43.6
2022-11-17T17:55:53.608Z,45.7
2022-11-17T18:01:30.927Z,48.7
2022-11-17T18:06:55.890Z,53.1
2022-11-17T18:12:34.222Z,55.6
2022-11-17T18:18:15.533Z,54.1
2022-11-17T18:23:59.669Z,54.3
2022-11-17T18:29:44.927Z,54.4
2022-11-17T18:35:23.002Z,53.7
2022-11-17T18:41:00.777Z,51.9
2022-11-17T18:46:38.941Z,51.1
2022-11-17T18:52:47.661Z,53.6
2022-11-17T18:58:25.236Z,54.1
2022-11-17T19:03:48.028Z,53.3
2022-11-17T19:09:26.661Z,55.4
2022-11-17T19:15:04.713Z,57.6
2022-11-17T19:20:43.148Z,57.2
2022-11-17T19:26:07.340Z,54.6
2022-11-17T19:31:48.423Z,54.8
2022-11-17T19:37:06.476Z,56.6
2022-11-17T19:42:45.129Z,56.7
2022-11-17T19:48:28.488Z,54.9
2022-11-17T19:54:05.363Z,52.9
2022-11-17T19:59:32.885Z,53.9
2022-11-17T20:04:55.123Z,52.9
2022-11-17T20:10:02.395Z,50.8
2022-11-17T20:15:21.948Z,49.1
2022-11-17T20:21:17.315Z,46.9
2022-11-17T20:26:45.321Z,44.4
2022-11-17T20:32:28.994Z,42.1
2022-11-17T20:38:07.329Z,40.1
2022-11-17T20:43:46.546Z,40.4
2022-11-17T20:49:08.805Z,38.8
2022-11-17T20:54:31.772Z,37.9
2022-11-17T21:00:11.093Z,38.9
2022-11-17T21:05:33.804Z,38.9
2022-11-17T21:11:19.257Z,37.7
2022-11-17T21:16:41.442Z,36
2022-11-17T21:22:25.339Z,34
2022-11-17T21:28:03.296Z,32.1
2022-11-17T21:33:33.087Z,30.8
2022-11-17T21:39:00.741Z,29.5
2022-11-17T21:44:24.025Z,26.8
2022-11-17T21:50:01.434Z,25.9
2022-11-17T21:55:39.337Z,25.2
2022-11-17T22:01:01.985Z,24.6
2022-11-17T22:06:25.317Z,24.1
2022-11-17T22:11:48.497Z,23.6
2022-11-17T22:17:25.874Z,23.2
2022-11-17T22:23:03.620Z,22.9
2022-11-17T22:28:56.333Z,25.6
2022-11-17T22:34:37.404Z,28.3
2022-11-17T22:39:59.907Z,28.3
2022-11-17T22:45:44.766Z,27.2
2022-11-17T22:51:22.411Z,25.5
2022-11-17T22:56:59.394Z,24.2
2022-11-17T23:02:27.177Z,23.6
2022-11-17T23:07:49.807Z,23.3
2022-11-17T23:14:05.187Z,23
2022-11-17T23:19:27.927Z,22.8
2022-11-17T23:24:50.515Z,22.6
2022-11-17T23:30:28.338Z,23.5
2022-11-17T23:36:05.925Z,28.2
2022-11-17T23:41:47.307Z,28.3
2022-11-17T23:47:26.629Z,27.6
2022-11-17T23:53:04.445Z,26.3
2022-11-17T23:58:41.735Z,25.4
